sensor_id;sensor_type;location;lat;lon;timestamp;P1;durP1;ratioP1;P2;durP2;ratioP2
26311;SDS011;14019;56.964;24.016;2023-11-18T00:02:26;5.93;;;2.90;;
26311;SDS011;14019;56.964;24.016;2023-11-18T00:05:13;6.07;;;2.80;;
26311;SDS011;14019;56.964;24.016;2023-11-18T00:07:59;6.63;;;2.78;;
26311;SDS011;14019;56.964;24.016;2023-11-18T00:10:45;6.68;;;2.78;;
26311;SDS011;14019;56.964;24.016;2023-11-18T00:13:32;5.47;;;2.58;;
26311;SDS011;14019;56.964;24.016;2023-11-18T00:16:18;5.50;;;2.40;;
26311;SDS011;14019;56.964;24.016;2023-11-18T00:19:04;5.10;;;2.33;;
26311;SDS011;14019;56.964;24.016;2023-11-18T00:21:51;6.68;;;2.80;;
26311;SDS011;14019;56.964;24.016;2023-11-18T00:24:37;6.78;;;2.67;;
26311;SDS011;14019;56.964;24.016;2023-11-18T00:27:23;6.50;;;2.75;;
26311;SDS011;14019;56.964;24.016;2023-11-18T00:33:28;5.07;;;2.60;;
26311;SDS011;14019;56.964;24.016;2023-11-18T00:36:14;6.82;;;2.55;;
26311;SDS011;14019;56.964;24.016;2023-11-18T00:39:00;4.78;;;2.10;;
26311;SDS011;14019;56.964;24.016;2023-11-18T00:41:50;4.68;;;1.80;;
26311;SDS011;14019;56.964;24.016;2023-11-18T00:44:37;3.60;;;1.85;;
26311;SDS011;14019;56.964;24.016;2023-11-18T00:47:23;3.90;;;2.08;;
26311;SDS011;14019;56.964;24.016;2023-11-18T00:50:09;4.40;;;1.80;;
26311;SDS011;14019;56.964;24.016;2023-11-18T00:52:55;4.45;;;1.80;;
26311;SDS011;14019;56.964;24.016;2023-11-18T00:55:43;5.25;;;1.63;;
26311;SDS011;14019;56.964;24.016;2023-11-18T00:58:30;3.47;;;1.70;;
26311;SDS011;14019;56.964;24.016;2023-11-18T01:01:17;3.63;;;1.73;;
26311;SDS011;14019;56.964;24.016;2023-11-18T01:04:03;3.20;;;1.83;;
26311;SDS011;14019;56.964;24.016;2023-11-18T01:06:51;4.55;;;2.10;;
26311;SDS011;14019;56.964;24.016;2023-11-18T01:09:37;3.10;;;1.60;;
26311;SDS011;14019;56.964;24.016;2023-11-18T01:12:24;5.20;;;1.92;;
26311;SDS011;14019;56.964;24.016;2023-11-18T01:15:11;4.90;;;1.70;;
26311;SDS011;14019;56.964;24.016;2023-11-18T01:17:59;4.05;;;1.92;;
26311;SDS011;14019;56.964;24.016;2023-11-18T01:20:46;4.03;;;1.90;;
26311;SDS011;14019;56.964;24.016;2023-11-18T01:23:32;3.47;;;1.75;;
26311;SDS011;14019;56.964;24.016;2023-11-18T01:26:19;4.28;;;2.33;;
26311;SDS011;14019;56.964;24.016;2023-11-18T01:29:06;4.38;;;2.05;;
26311;SDS011;14019;56.964;24.016;2023-11-18T01:31:52;4.00;;;1.65;;
26311;SDS011;14019;56.964;24.016;2023-11-18T01:34:41;4.07;;;2.00;;
26311;SDS011;14019;56.964;24.016;2023-11-18T01:37:29;4.10;;;1.85;;
26311;SDS011;14019;56.964;24.016;2023-11-18T01:40:18;3.72;;;1.88;;
26311;SDS011;14019;56.964;24.016;2023-11-18T01:43:05;3.50;;;1.80;;
26311;SDS011;14019;56.964;24.016;2023-11-18T01:45:58;3.45;;;1.90;;
26311;SDS011;14019;56.964;24.016;2023-11-18T01:48:46;5.20;;;2.15;;
26311;SDS011;14019;56.964;24.016;2023-11-18T01:51:33;3.80;;;1.77;;
26311;SDS011;14019;56.964;24.016;2023-11-18T01:54:21;4.00;;;1.85;;
26311;SDS011;14019;56.964;24.016;2023-11-18T01:57:09;5.13;;;1.70;;
26311;SDS011;14019;56.964;24.016;2023-11-18T01:59:56;4.82;;;1.55;;
26311;SDS011;14019;56.964;24.016;2023-11-18T02:02:43;4.10;;;1.83;;
26311;SDS011;14019;56.964;24.016;2023-11-18T02:05:30;4.57;;;1.58;;
26311;SDS011;14019;56.964;24.016;2023-11-18T02:08:17;4.43;;;2.10;;
26311;SDS011;14019;56.964;24.016;2023-11-18T02:14:02;3.25;;;1.63;;
26311;SDS011;14019;56.964;24.016;2023-11-18T02:16:50;3.72;;;1.80;;
26311;SDS011;14019;56.964;24.016;2023-11-18T02:19:38;3.38;;;1.70;;
26311;SDS011;14019;56.964;24.016;2023-11-18T02:22:25;3.25;;;1.80;;
26311;SDS011;14019;56.964;24.016;2023-11-18T02:25:17;3.50;;;1.83;;
26311;SDS011;14019;56.964;24.016;2023-11-18T02:28:04;3.25;;;1.67;;
26311;SDS011;14019;56.964;24.016;2023-11-18T02:34:02;5.57;;;1.92;;
26311;SDS011;14019;56.964;24.016;2023-11-18T02:36:53;5.22;;;1.95;;
26311;SDS011;14019;56.964;24.016;2023-11-18T02:39:42;5.32;;;1.95;;
26311;SDS011;14019;56.964;24.016;2023-11-18T02:42:29;3.45;;;1.77;;
26311;SDS011;14019;56.964;24.016;2023-11-18T02:45:15;3.25;;;1.90;;
26311;SDS011;14019;56.964;24.016;2023-11-18T02:48:03;4.18;;;1.88;;
26311;SDS011;14019;56.964;24.016;2023-11-18T02:50:53;2.97;;;1.60;;
26311;SDS011;14019;56.964;24.016;2023-11-18T02:53:39;5.68;;;1.65;;
26311;SDS011;14019;56.964;24.016;2023-11-18T02:56:26;3.65;;;1.83;;
26311;SDS011;14019;56.964;24.016;2023-11-18T02:59:13;3.45;;;1.80;;
26311;SDS011;14019;56.964;24.016;2023-11-18T03:01:59;7.00;;;1.80;;
26311;SDS011;14019;56.964;24.016;2023-11-18T03:04:47;5.90;;;1.80;;
26311;SDS011;14019;56.964;24.016;2023-11-18T03:07:34;3.13;;;1.73;;
26311;SDS011;14019;56.964;24.016;2023-11-18T03:10:20;4.13;;;1.85;;
26311;SDS011;14019;56.964;24.016;2023-11-18T03:13:07;4.20;;;2.00;;
26311;SDS011;14019;56.964;24.016;2023-11-18T03:15:53;3.95;;;1.85;;
26311;SDS011;14019;56.964;24.016;2023-11-18T03:18:40;5.22;;;2.28;;
26311;SDS011;14019;56.964;24.016;2023-11-18T03:21:27;3.38;;;1.70;;
26311;SDS011;14019;56.964;24.016;2023-11-18T03:24:12;4.22;;;1.90;;
26311;SDS011;14019;56.964;24.016;2023-11-18T03:26:59;3.17;;;1.75;;
26311;SDS011;14019;56.964;24.016;2023-11-18T03:29:45;4.68;;;1.85;;
26311;SDS011;14019;56.964;24.016;2023-11-18T03:32:36;3.63;;;1.80;;
26311;SDS011;14019;56.964;24.016;2023-11-18T03:35:23;3.42;;;1.80;;
26311;SDS011;14019;56.964;24.016;2023-11-18T03:38:10;5.30;;;1.98;;
26311;SDS011;14019;56.964;24.016;2023-11-18T03:40:56;3.67;;;1.77;;
26311;SDS011;14019;56.964;24.016;2023-11-18T03:43:43;3.67;;;1.77;;
26311;SDS011;14019;56.964;24.016;2023-11-18T03:46:29;4.13;;;1.73;;
26311;SDS011;14019;56.964;24.016;2023-11-18T03:49:20;3.72;;;1.73;;
26311;SDS011;14019;56.964;24.016;2023-11-18T03:52:06;7.60;;;1.70;;
26311;SDS011;14019;56.964;24.016;2023-11-18T03:54:52;2.45;;;1.38;;
26311;SDS011;14019;56.964;24.016;2023-11-18T03:57:38;3.30;;;1.67;;
26311;SDS011;14019;56.964;24.016;2023-11-18T04:00:24;3.97;;;1.98;;
26311;SDS011;14019;56.964;24.016;2023-11-18T04:03:14;5.70;;;1.77;;
26311;SDS011;14019;56.964;24.016;2023-11-18T04:06:00;6.50;;;1.80;;
26311;SDS011;14019;56.964;24.016;2023-11-18T04:08:48;3.30;;;1.90;;
26311;SDS011;14019;56.964;24.016;2023-11-18T04:11:34;6.32;;;1.85;;
26311;SDS011;14019;56.964;24.016;2023-11-18T04:14:21;3.58;;;1.50;;
26311;SDS011;14019;56.964;24.016;2023-11-18T04:17:07;3.60;;;1.83;;
26311;SDS011;14019;56.964;24.016;2023-11-18T04:19:53;6.07;;;1.75;;
26311;SDS011;14019;56.964;24.016;2023-11-18T04:22:41;3.53;;;1.65;;
26311;SDS011;14019;56.964;24.016;2023-11-18T04:25:27;4.35;;;1.98;;
26311;SDS011;14019;56.964;24.016;2023-11-18T04:28:13;3.17;;;1.60;;
26311;SDS011;14019;56.964;24.016;2023-11-18T04:30:59;3.65;;;1.77;;
26311;SDS011;14019;56.964;24.016;2023-11-18T04:33:46;4.80;;;2.10;;
26311;SDS011;14019;56.964;24.016;2023-11-18T04:36:32;5.32;;;1.90;;
26311;SDS011;14019;56.964;24.016;2023-11-18T04:39:18;4.72;;;2.03;;
26311;SDS011;14019;56.964;24.016;2023-11-18T04:42:05;5.10;;;2.10;;
26311;SDS011;14019;56.964;24.016;2023-11-18T04:44:52;5.03;;;2.20;;
26311;SDS011;14019;56.964;24.016;2023-11-18T04:47:40;3.95;;;1.98;;
26311;SDS011;14019;56.964;24.016;2023-11-18T04:50:32;4.28;;;2.08;;
26311;SDS011;14019;56.964;24.016;2023-11-18T04:53:18;5.35;;;2.20;;
26311;SDS011;14019;56.964;24.016;2023-11-18T04:56:04;4.68;;;2.00;;
26311;SDS011;14019;56.964;24.016;2023-11-18T04:58:55;5.32;;;2.20;;
26311;SDS011;14019;56.964;24.016;2023-11-18T05:01:42;6.38;;;2.22;;
26311;SDS011;14019;56.964;24.016;2023-11-18T05:04:28;5.60;;;2.22;;
26311;SDS011;14019;56.964;24.016;2023-11-18T05:07:15;6.00;;;2.40;;
26311;SDS011;14019;56.964;24.016;2023-11-18T05:10:01;6.35;;;2.63;;
26311;SDS011;14019;56.964;24.016;2023-11-18T05:12:53;4.20;;;1.95;;
26311;SDS011;14019;56.964;24.016;2023-11-18T05:15:41;5.03;;;2.35;;
26311;SDS011;14019;56.964;24.016;2023-11-18T05:18:30;5.60;;;2.50;;
26311;SDS011;14019;56.964;24.016;2023-11-18T05:21:21;6.25;;;2.53;;
26311;SDS011;14019;56.964;24.016;2023-11-18T05:24:08;6.13;;;2.47;;
26311;SDS011;14019;56.964;24.016;2023-11-18T05:26:55;5.22;;;2.58;;
26311;SDS011;14019;56.964;24.016;2023-11-18T05:29:41;7.72;;;2.90;;
26311;SDS011;14019;56.964;24.016;2023-11-18T05:32:27;6.35;;;2.70;;
26311;SDS011;14019;56.964;24.016;2023-11-18T05:35:14;5.60;;;2.72;;
26311;SDS011;14019;56.964;24.016;2023-11-18T05:38:01;6.05;;;2.85;;
26311;SDS011;14019;56.964;24.016;2023-11-18T05:40:48;5.03;;;2.45;;
26311;SDS011;14019;56.964;24.016;2023-11-18T05:43:46;5.53;;;2.53;;
26311;SDS011;14019;56.964;24.016;2023-11-18T05:46:37;5.40;;;2.67;;
26311;SDS011;14019;56.964;24.016;2023-11-18T05:49:25;5.50;;;2.60;;
26311;SDS011;14019;56.964;24.016;2023-11-18T05:52:11;5.18;;;2.42;;
26311;SDS011;14019;56.964;24.016;2023-11-18T05:54:57;11.98;;;2.63;;
26311;SDS011;14019;56.964;24.016;2023-11-18T05:57:43;4.82;;;2.28;;
26311;SDS011;14019;56.964;24.016;2023-11-18T06:00:30;5.63;;;2.50;;
26311;SDS011;14019;56.964;24.016;2023-11-18T06:03:25;4.22;;;2.20;;
26311;SDS011;14019;56.964;24.016;2023-11-18T06:06:13;4.95;;;2.60;;
26311;SDS011;14019;56.964;24.016;2023-11-18T06:09:06;4.82;;;2.47;;
26311;SDS011;14019;56.964;24.016;2023-11-18T06:12:03;5.97;;;2.42;;
26311;SDS011;14019;56.964;24.016;2023-11-18T06:14:54;6.50;;;3.00;;
26311;SDS011;14019;56.964;24.016;2023-11-18T06:17:40;5.60;;;2.83;;
26311;SDS011;14019;56.964;24.016;2023-11-18T06:20:27;6.32;;;2.78;;
26311;SDS011;14019;56.964;24.016;2023-11-18T06:23:13;6.13;;;2.83;;
26311;SDS011;14019;56.964;24.016;2023-11-18T06:26:04;6.75;;;2.72;;
26311;SDS011;14019;56.964;24.016;2023-11-18T06:28:50;8.32;;;2.85;;
26311;SDS011;14019;56.964;24.016;2023-11-18T06:31:36;6.10;;;2.67;;
26311;SDS011;14019;56.964;24.016;2023-11-18T06:34:22;5.28;;;2.72;;
26311;SDS011;14019;56.964;24.016;2023-11-18T06:37:08;6.20;;;2.60;;
26311;SDS011;14019;56.964;24.016;2023-11-18T06:39:54;5.68;;;2.70;;
26311;SDS011;14019;56.964;24.016;2023-11-18T06:42:42;6.38;;;2.50;;
26311;SDS011;14019;56.964;24.016;2023-11-18T06:45:32;7.97;;;3.10;;
26311;SDS011;14019;56.964;24.016;2023-11-18T06:48:18;7.53;;;3.13;;
26311;SDS011;14019;56.964;24.016;2023-11-18T06:51:05;7.78;;;3.33;;
26311;SDS011;14019;56.964;24.016;2023-11-18T06:53:54;9.27;;;3.13;;
26311;SDS011;14019;56.964;24.016;2023-11-18T06:56:41;14.73;;;3.85;;
26311;SDS011;14019;56.964;24.016;2023-11-18T06:59:28;8.65;;;3.60;;
26311;SDS011;14019;56.964;24.016;2023-11-18T07:02:14;7.07;;;3.33;;
26311;SDS011;14019;56.964;24.016;2023-11-18T07:05:01;8.32;;;3.25;;
26311;SDS011;14019;56.964;24.016;2023-11-18T07:07:47;8.13;;;3.20;;
26311;SDS011;14019;56.964;24.016;2023-11-18T07:10:33;5.72;;;2.65;;
26311;SDS011;14019;56.964;24.016;2023-11-18T07:13:23;6.13;;;2.88;;
26311;SDS011;14019;56.964;24.016;2023-11-18T07:16:10;5.90;;;2.65;;
26311;SDS011;14019;56.964;24.016;2023-11-18T07:18:57;5.78;;;2.63;;
26311;SDS011;14019;56.964;24.016;2023-11-18T07:21:43;5.60;;;3.05;;
26311;SDS011;14019;56.964;24.016;2023-11-18T07:24:31;6.25;;;3.10;;
26311;SDS011;14019;56.964;24.016;2023-11-18T07:27:17;8.13;;;3.30;;
26311;SDS011;14019;56.964;24.016;2023-11-18T07:30:03;7.63;;;3.17;;
26311;SDS011;14019;56.964;24.016;2023-11-18T07:32:55;5.82;;;2.90;;
26311;SDS011;14019;56.964;24.016;2023-11-18T07:35:44;6.28;;;2.83;;
26311;SDS011;14019;56.964;24.016;2023-11-18T07:38:31;6.55;;;2.80;;
26311;SDS011;14019;56.964;24.016;2023-11-18T07:41:19;6.05;;;3.00;;
26311;SDS011;14019;56.964;24.016;2023-11-18T07:44:09;7.65;;;3.00;;
26311;SDS011;14019;56.964;24.016;2023-11-18T07:46:58;6.35;;;3.10;;
26311;SDS011;14019;56.964;24.016;2023-11-18T07:49:44;10.52;;;3.42;;
26311;SDS011;14019;56.964;24.016;2023-11-18T07:52:30;7.38;;;3.30;;
26311;SDS011;14019;56.964;24.016;2023-11-18T07:55:17;8.07;;;2.97;;
26311;SDS011;14019;56.964;24.016;2023-11-18T07:58:03;6.18;;;2.97;;
26311;SDS011;14019;56.964;24.016;2023-11-18T08:00:49;7.40;;;2.85;;
26311;SDS011;14019;56.964;24.016;2023-11-18T08:03:36;6.05;;;2.70;;
26311;SDS011;14019;56.964;24.016;2023-11-18T08:06:23;5.50;;;2.67;;
26311;SDS011;14019;56.964;24.016;2023-11-18T08:09:12;5.95;;;2.72;;
26311;SDS011;14019;56.964;24.016;2023-11-18T08:11:59;5.70;;;2.40;;
26311;SDS011;14019;56.964;24.016;2023-11-18T08:14:46;4.68;;;2.20;;
26311;SDS011;14019;56.964;24.016;2023-11-18T08:17:48;5.43;;;2.45;;
26311;SDS011;14019;56.964;24.016;2023-11-18T08:20:34;5.82;;;2.80;;
26311;SDS011;14019;56.964;24.016;2023-11-18T08:23:20;7.00;;;3.33;;
26311;SDS011;14019;56.964;24.016;2023-11-18T08:26:07;6.93;;;3.05;;
26311;SDS011;14019;56.964;24.016;2023-11-18T08:28:54;8.38;;;3.33;;
26311;SDS011;14019;56.964;24.016;2023-11-18T08:31:40;9.88;;;3.80;;
26311;SDS011;14019;56.964;24.016;2023-11-18T08:34:27;9.93;;;4.07;;
26311;SDS011;14019;56.964;24.016;2023-11-18T08:37:13;7.95;;;3.55;;
26311;SDS011;14019;56.964;24.016;2023-11-18T08:39:59;8.57;;;3.40;;
26311;SDS011;14019;56.964;24.016;2023-11-18T08:42:48;10.38;;;3.33;;
26311;SDS011;14019;56.964;24.016;2023-11-18T08:45:38;4.75;;;2.28;;
26311;SDS011;14019;56.964;24.016;2023-11-18T08:48:26;7.63;;;3.28;;
26311;SDS011;14019;56.964;24.016;2023-11-18T08:51:13;7.32;;;2.75;;
26311;SDS011;14019;56.964;24.016;2023-11-18T08:54:02;7.10;;;3.30;;
26311;SDS011;14019;56.964;24.016;2023-11-18T08:57:07;6.43;;;2.92;;
26311;SDS011;14019;56.964;24.016;2023-11-18T09:00:10;5.70;;;2.78;;
26311;SDS011;14019;56.964;24.016;2023-11-18T09:03:17;9.25;;;2.90;;
26311;SDS011;14019;56.964;24.016;2023-11-18T09:06:10;6.47;;;3.20;;
26311;SDS011;14019;56.964;24.016;2023-11-18T09:09:25;6.55;;;3.30;;
26311;SDS011;14019;56.964;24.016;2023-11-18T09:12:13;10.43;;;3.50;;
26311;SDS011;14019;56.964;24.016;2023-11-18T09:14:59;7.65;;;3.53;;
26311;SDS011;14019;56.964;24.016;2023-11-18T09:17:49;8.13;;;3.35;;
26311;SDS011;14019;56.964;24.016;2023-11-18T09:20:36;7.57;;;3.33;;
26311;SDS011;14019;56.964;24.016;2023-11-18T09:23:25;10.13;;;3.92;;
26311;SDS011;14019;56.964;24.016;2023-11-18T09:26:12;9.25;;;3.95;;
26311;SDS011;14019;56.964;24.016;2023-11-18T09:29:00;9.13;;;3.70;;
26311;SDS011;14019;56.964;24.016;2023-11-18T09:31:49;8.02;;;3.90;;
26311;SDS011;14019;56.964;24.016;2023-11-18T09:34:39;7.97;;;3.90;;
26311;SDS011;14019;56.964;24.016;2023-11-18T09:37:26;8.48;;;3.85;;
26311;SDS011;14019;56.964;24.016;2023-11-18T09:40:15;8.82;;;4.00;;
26311;SDS011;14019;56.964;24.016;2023-11-18T09:43:03;8.45;;;3.60;;
26311;SDS011;14019;56.964;24.016;2023-11-18T09:45:56;6.40;;;3.22;;
26311;SDS011;14019;56.964;24.016;2023-11-18T09:48:46;7.88;;;3.53;;
26311;SDS011;14019;56.964;24.016;2023-11-18T09:51:37;7.72;;;3.20;;
26311;SDS011;14019;56.964;24.016;2023-11-18T09:54:31;6.80;;;3.05;;
26311;SDS011;14019;56.964;24.016;2023-11-18T10:03:17;6.13;;;3.08;;
26311;SDS011;14019;56.964;24.016;2023-11-18T10:06:04;7.40;;;3.50;;
26311;SDS011;14019;56.964;24.016;2023-11-18T10:08:51;10.38;;;3.72;;
26311;SDS011;14019;56.964;24.016;2023-11-18T10:11:38;9.10;;;3.88;;
26311;SDS011;14019;56.964;24.016;2023-11-18T10:14:29;7.63;;;3.88;;
26311;SDS011;14019;56.964;24.016;2023-11-18T10:17:15;10.70;;;4.22;;
26311;SDS011;14019;56.964;24.016;2023-11-18T10:20:03;8.38;;;4.10;;
26311;SDS011;14019;56.964;24.016;2023-11-18T10:23:08;7.70;;;3.33;;
26311;SDS011;14019;56.964;24.016;2023-11-18T10:25:58;5.72;;;2.95;;
26311;SDS011;14019;56.964;24.016;2023-11-18T10:28:46;5.40;;;2.78;;
26311;SDS011;14019;56.964;24.016;2023-11-18T10:31:34;8.95;;;3.47;;
26311;SDS011;14019;56.964;24.016;2023-11-18T10:34:20;7.28;;;3.53;;
26311;SDS011;14019;56.964;24.016;2023-11-18T10:37:08;7.65;;;3.58;;
26311;SDS011;14019;56.964;24.016;2023-11-18T10:39:56;6.20;;;3.08;;
26311;SDS011;14019;56.964;24.016;2023-11-18T10:42:43;9.35;;;3.22;;
26311;SDS011;14019;56.964;24.016;2023-11-18T10:45:34;7.57;;;3.30;;
26311;SDS011;14019;56.964;24.016;2023-11-18T10:48:27;7.60;;;3.20;;
26311;SDS011;14019;56.964;24.016;2023-11-18T10:51:15;7.45;;;3.25;;
26311;SDS011;14019;56.964;24.016;2023-11-18T10:54:02;8.10;;;3.05;;
26311;SDS011;14019;56.964;24.016;2023-11-18T10:56:58;5.80;;;2.85;;
26311;SDS011;14019;56.964;24.016;2023-11-18T11:00:00;8.80;;;3.33;;
26311;SDS011;14019;56.964;24.016;2023-11-18T11:02:57;9.50;;;3.80;;
26311;SDS011;14019;56.964;24.016;2023-11-18T11:05:43;9.35;;;4.00;;
26311;SDS011;14019;56.964;24.016;2023-11-18T11:08:30;10.48;;;4.18;;
26311;SDS011;14019;56.964;24.016;2023-11-18T11:11:34;7.85;;;3.80;;
26311;SDS011;14019;56.964;24.016;2023-11-18T11:14:23;8.18;;;3.83;;
26311;SDS011;14019;56.964;24.016;2023-11-18T11:17:17;8.55;;;3.72;;
26311;SDS011;14019;56.964;24.016;2023-11-18T11:20:12;12.02;;;4.43;;
26311;SDS011;14019;56.964;24.016;2023-11-18T11:23:32;9.88;;;4.38;;
26311;SDS011;14019;56.964;24.016;2023-11-18T11:26:26;11.57;;;5.22;;
26311;SDS011;14019;56.964;24.016;2023-11-18T11:32:13;12.23;;;4.95;;
26311;SDS011;14019;56.964;24.016;2023-11-18T11:35:06;13.70;;;5.55;;
26311;SDS011;14019;56.964;24.016;2023-11-18T11:37:53;10.00;;;4.55;;
26311;SDS011;14019;56.964;24.016;2023-11-18T11:40:42;11.52;;;4.70;;
26311;SDS011;14019;56.964;24.016;2023-11-18T11:43:34;9.80;;;4.10;;
26311;SDS011;14019;56.964;24.016;2023-11-18T11:46:22;14.10;;;4.20;;
26311;SDS011;14019;56.964;24.016;2023-11-18T11:49:09;9.98;;;4.50;;
26311;SDS011;14019;56.964;24.016;2023-11-18T11:52:11;8.88;;;3.95;;
26311;SDS011;14019;56.964;24.016;2023-11-18T11:55:03;11.10;;;4.10;;
26311;SDS011;14019;56.964;24.016;2023-11-18T11:57:57;9.18;;;4.28;;
26311;SDS011;14019;56.964;24.016;2023-11-18T12:03:53;8.45;;;4.13;;
26311;SDS011;14019;56.964;24.016;2023-11-18T12:06:43;10.68;;;4.40;;
26311;SDS011;14019;56.964;24.016;2023-11-18T12:09:32;8.68;;;3.97;;
26311;SDS011;14019;56.964;24.016;2023-11-18T12:12:23;7.68;;;4.07;;
26311;SDS011;14019;56.964;24.016;2023-11-18T12:15:13;9.80;;;4.00;;
26311;SDS011;14019;56.964;24.016;2023-11-18T12:20:52;13.30;;;4.45;;
26311;SDS011;14019;56.964;24.016;2023-11-18T12:26:53;11.43;;;4.07;;
26311;SDS011;14019;56.964;24.016;2023-11-18T12:29:43;8.65;;;4.00;;
26311;SDS011;14019;56.964;24.016;2023-11-18T12:35:51;9.82;;;3.90;;
26311;SDS011;14019;56.964;24.016;2023-11-18T12:38:55;9.43;;;3.78;;
26311;SDS011;14019;56.964;24.016;2023-11-18T12:41:48;7.43;;;3.53;;
26311;SDS011;14019;56.964;24.016;2023-11-18T12:47:52;6.93;;;3.25;;
26311;SDS011;14019;56.964;24.016;2023-11-18T12:50:43;13.02;;;4.00;;
26311;SDS011;14019;56.964;24.016;2023-11-18T12:53:31;8.07;;;3.63;;
26311;SDS011;14019;56.964;24.016;2023-11-18T12:56:20;8.65;;;4.20;;
26311;SDS011;14019;56.964;24.016;2023-11-18T12:59:08;8.40;;;3.95;;
26311;SDS011;14019;56.964;24.016;2023-11-18T13:01:54;10.43;;;3.97;;
26311;SDS011;14019;56.964;24.016;2023-11-18T13:04:45;9.77;;;4.22;;
26311;SDS011;14019;56.964;24.016;2023-11-18T13:07:35;8.40;;;4.15;;
26311;SDS011;14019;56.964;24.016;2023-11-18T13:10:22;9.88;;;3.90;;
26311;SDS011;14019;56.964;24.016;2023-11-18T13:13:10;10.52;;;3.78;;
26311;SDS011;14019;56.964;24.016;2023-11-18T13:15:59;10.88;;;4.10;;
26311;SDS011;14019;56.964;24.016;2023-11-18T13:18:47;9.32;;;4.20;;
26311;SDS011;14019;56.964;24.016;2023-11-18T13:21:34;12.75;;;4.75;;
26311;SDS011;14019;56.964;24.016;2023-11-18T13:24:23;9.30;;;4.22;;
26311;SDS011;14019;56.964;24.016;2023-11-18T13:27:10;11.45;;;4.25;;
26311;SDS011;14019;56.964;24.016;2023-11-18T13:29:58;9.85;;;4.53;;
26311;SDS011;14019;56.964;24.016;2023-11-18T13:32:44;10.43;;;4.30;;
26311;SDS011;14019;56.964;24.016;2023-11-18T13:50:19;12.10;;;5.20;;
26311;SDS011;14019;56.964;24.016;2023-11-18T13:53:06;12.05;;;4.57;;
26311;SDS011;14019;56.964;24.016;2023-11-18T13:55:53;10.55;;;4.78;;
26311;SDS011;14019;56.964;24.016;2023-11-18T13:58:39;13.73;;;4.90;;
26311;SDS011;14019;56.964;24.016;2023-11-18T14:01:27;12.07;;;5.60;;
26311;SDS011;14019;56.964;24.016;2023-11-18T14:04:14;11.93;;;4.88;;
26311;SDS011;14019;56.964;24.016;2023-11-18T14:07:02;16.65;;;6.07;;
26311;SDS011;14019;56.964;24.016;2023-11-18T14:09:50;13.05;;;5.80;;
26311;SDS011;14019;56.964;24.016;2023-11-18T14:19:18;12.30;;;5.57;;
26311;SDS011;14019;56.964;24.016;2023-11-18T14:22:04;12.10;;;5.20;;
26311;SDS011;14019;56.964;24.016;2023-11-18T14:24:55;14.48;;;5.95;;
26311;SDS011;14019;56.964;24.016;2023-11-18T14:27:40;13.85;;;5.80;;
26311;SDS011;14019;56.964;24.016;2023-11-18T14:30:27;12.68;;;6.30;;
26311;SDS011;14019;56.964;24.016;2023-11-18T14:33:13;16.60;;;6.00;;
26311;SDS011;14019;56.964;24.016;2023-11-18T14:36:00;14.02;;;6.18;;
26311;SDS011;14019;56.964;24.016;2023-11-18T14:38:46;17.73;;;6.10;;
26311;SDS011;14019;56.964;24.016;2023-11-18T14:41:32;17.70;;;6.95;;
26311;SDS011;14019;56.964;24.016;2023-11-18T14:44:19;13.50;;;6.60;;
26311;SDS011;14019;56.964;24.016;2023-11-18T14:47:06;15.68;;;6.90;;
26311;SDS011;14019;56.964;24.016;2023-11-18T14:49:52;16.02;;;7.47;;
26311;SDS011;14019;56.964;24.016;2023-11-18T14:52:39;14.05;;;6.72;;
26311;SDS011;14019;56.964;24.016;2023-11-18T14:55:26;17.05;;;7.55;;
26311;SDS011;14019;56.964;24.016;2023-11-18T14:58:14;18.95;;;7.82;;
26311;SDS011;14019;56.964;24.016;2023-11-18T15:01:00;17.08;;;7.95;;
26311;SDS011;14019;56.964;24.016;2023-11-18T15:03:47;21.08;;;8.93;;
26311;SDS011;14019;56.964;24.016;2023-11-18T15:06:33;22.65;;;8.48;;
26311;SDS011;14019;56.964;24.016;2023-11-18T15:09:20;22.92;;;8.50;;
26311;SDS011;14019;56.964;24.016;2023-11-18T15:12:09;18.67;;;8.48;;
26311;SDS011;14019;56.964;24.016;2023-11-18T15:14:57;22.00;;;8.50;;
26311;SDS011;14019;56.964;24.016;2023-11-18T15:17:45;22.63;;;9.02;;
26311;SDS011;14019;56.964;24.016;2023-11-18T15:20:32;22.73;;;9.65;;
26311;SDS011;14019;56.964;24.016;2023-11-18T15:23:20;19.98;;;9.40;;
26311;SDS011;14019;56.964;24.016;2023-11-18T15:26:09;21.00;;;9.00;;
26311;SDS011;14019;56.964;24.016;2023-11-18T15:28:56;23.15;;;9.70;;
26311;SDS011;14019;56.964;24.016;2023-11-18T15:35:08;19.63;;;9.00;;
26311;SDS011;14019;56.964;24.016;2023-11-18T15:37:55;21.85;;;8.43;;
26311;SDS011;14019;56.964;24.016;2023-11-18T15:40:41;20.70;;;8.93;;
26311;SDS011;14019;56.964;24.016;2023-11-18T15:43:28;22.95;;;10.02;;
26311;SDS011;14019;56.964;24.016;2023-11-18T15:49:28;21.85;;;8.95;;
26311;SDS011;14019;56.964;24.016;2023-11-18T15:52:14;25.55;;;9.50;;
26311;SDS011;14019;56.964;24.016;2023-11-18T15:55:04;23.70;;;9.65;;
26311;SDS011;14019;56.964;24.016;2023-11-18T15:58:01;22.77;;;9.43;;
26311;SDS011;14019;56.964;24.016;2023-11-18T16:00:49;21.40;;;8.90;;
26311;SDS011;14019;56.964;24.016;2023-11-18T16:03:39;18.83;;;8.52;;
26311;SDS011;14019;56.964;24.016;2023-11-18T16:06:26;20.73;;;8.35;;
26311;SDS011;14019;56.964;24.016;2023-11-18T16:12:26;24.25;;;9.93;;
26311;SDS011;14019;56.964;24.016;2023-11-18T16:15:14;21.83;;;10.38;;
26311;SDS011;14019;56.964;24.016;2023-11-18T16:18:02;26.02;;;11.57;;
26311;SDS011;14019;56.964;24.016;2023-11-18T16:20:50;25.77;;;11.48;;
26311;SDS011;14019;56.964;24.016;2023-11-18T16:23:36;26.55;;;11.93;;
26311;SDS011;14019;56.964;24.016;2023-11-18T16:26:26;27.02;;;12.05;;
26311;SDS011;14019;56.964;24.016;2023-11-18T16:29:13;31.55;;;11.10;;
26311;SDS011;14019;56.964;24.016;2023-11-18T16:31:59;25.65;;;11.95;;
26311;SDS011;14019;56.964;24.016;2023-11-18T16:34:46;25.38;;;11.40;;
26311;SDS011;14019;56.964;24.016;2023-11-18T16:37:32;29.17;;;12.55;;
26311;SDS011;14019;56.964;24.016;2023-11-18T16:40:20;30.08;;;14.80;;
26311;SDS011;14019;56.964;24.016;2023-11-18T16:43:09;26.95;;;13.77;;
26311;SDS011;14019;56.964;24.016;2023-11-18T16:45:55;28.52;;;13.93;;
26311;SDS011;14019;56.964;24.016;2023-11-18T16:48:44;32.30;;;15.40;;
26311;SDS011;14019;56.964;24.016;2023-11-18T16:51:30;30.48;;;14.32;;
26311;SDS011;14019;56.964;24.016;2023-11-18T16:54:16;31.85;;;14.75;;
26311;SDS011;14019;56.964;24.016;2023-11-18T16:57:23;30.83;;;14.40;;
26311;SDS011;14019;56.964;24.016;2023-11-18T17:00:13;31.10;;;13.90;;
26311;SDS011;14019;56.964;24.016;2023-11-18T17:03:09;33.25;;;14.65;;
26311;SDS011;14019;56.964;24.016;2023-11-18T17:05:57;27.20;;;13.00;;
26311;SDS011;14019;56.964;24.016;2023-11-18T17:08:45;28.17;;;13.60;;
26311;SDS011;14019;56.964;24.016;2023-11-18T17:11:32;25.83;;;10.95;;
26311;SDS011;14019;56.964;24.016;2023-11-18T17:14:19;27.13;;;12.02;;
26311;SDS011;14019;56.964;24.016;2023-11-18T17:17:06;21.85;;;10.82;;
26311;SDS011;14019;56.964;24.016;2023-11-18T17:19:54;17.48;;;8.88;;
26311;SDS011;14019;56.964;24.016;2023-11-18T17:22:40;17.63;;;8.43;;
26311;SDS011;14019;56.964;24.016;2023-11-18T17:25:27;18.88;;;8.65;;
26311;SDS011;14019;56.964;24.016;2023-11-18T17:28:17;21.13;;;9.85;;
26311;SDS011;14019;56.964;24.016;2023-11-18T17:31:04;23.70;;;7.75;;
26311;SDS011;14019;56.964;24.016;2023-11-18T17:33:51;16.60;;;7.68;;
26311;SDS011;14019;56.964;24.016;2023-11-18T17:36:43;19.60;;;8.05;;
26311;SDS011;14019;56.964;24.016;2023-11-18T17:39:29;16.98;;;7.50;;
26311;SDS011;14019;56.964;24.016;2023-11-18T17:42:15;16.02;;;7.50;;